sensor_id;sensor_type;location;lat;lon;timestamp;P1;durP1;ratioP1;P2;durP2;ratioP2
29358;SDS011;16347;53.232;6.556;2022-09-12T00:01:49;13.35;;;7.80;;
29358;SDS011;16347;53.232;6.556;2022-09-12T00:04:18;11.35;;;7.72;;
29358;SDS011;16347;53.232;6.556;2022-09-12T00:06:51;11.20;;;8.70;;
29358;SDS011;16347;53.232;6.556;2022-09-12T00:09:19;9.65;;;8.10;;
29358;SDS011;16347;53.232;6.556;2022-09-12T00:11:49;11.50;;;8.45;;
29358;SDS011;16347;53.232;6.556;2022-09-12T00:14:19;18.73;;;8.68;;
29358;SDS011;16347;53.232;6.556;2022-09-12T00:16:49;13.70;;;9.50;;
29358;SDS011;16347;53.232;6.556;2022-09-12T00:19:19;16.08;;;11.45;;
29358;SDS011;16347;53.232;6.556;2022-09-12T00:21:49;16.85;;;11.70;;
29358;SDS011;16347;53.232;6.556;2022-09-12T00:24:19;15.10;;;11.07;;
29358;SDS011;16347;53.232;6.556;2022-09-12T00:26:48;15.20;;;11.45;;
29358;SDS011;16347;53.232;6.556;2022-09-12T00:29:17;14.32;;;11.25;;
29358;SDS011;16347;53.232;6.556;2022-09-12T00:31:50;12.07;;;9.82;;
29358;SDS011;16347;53.232;6.556;2022-09-12T00:34:19;13.73;;;10.95;;
29358;SDS011;16347;53.232;6.556;2022-09-12T00:36:52;13.68;;;10.55;;
29358;SDS011;16347;53.232;6.556;2022-09-12T00:39:21;14.18;;;11.85;;
29358;SDS011;16347;53.232;6.556;2022-09-12T00:41:49;17.42;;;12.27;;
29358;SDS011;16347;53.232;6.556;2022-09-12T00:47:22;13.60;;;11.32;;
29358;SDS011;16347;53.232;6.556;2022-09-12T00:49:58;14.80;;;11.50;;
29358;SDS011;16347;53.232;6.556;2022-09-12T00:52:40;18.15;;;11.90;;
29358;SDS011;16347;53.232;6.556;2022-09-12T00:55:14;19.48;;;12.30;;
29358;SDS011;16347;53.232;6.556;2022-09-12T00:57:48;12.68;;;10.18;;
29358;SDS011;16347;53.232;6.556;2022-09-12T01:00:20;15.43;;;11.43;;
29358;SDS011;16347;53.232;6.556;2022-09-12T01:02:51;24.02;;;11.73;;
29358;SDS011;16347;53.232;6.556;2022-09-12T01:05:27;14.02;;;10.98;;
29358;SDS011;16347;53.232;6.556;2022-09-12T01:08:04;17.75;;;10.88;;
29358;SDS011;16347;53.232;6.556;2022-09-12T01:10:34;13.20;;;10.38;;
29358;SDS011;16347;53.232;6.556;2022-09-12T01:13:07;16.15;;;11.13;;
29358;SDS011;16347;53.232;6.556;2022-09-12T01:15:37;11.82;;;10.35;;
29358;SDS011;16347;53.232;6.556;2022-09-12T01:18:11;13.73;;;10.38;;
29358;SDS011;16347;53.232;6.556;2022-09-12T01:20:53;16.15;;;13.00;;
29358;SDS011;16347;53.232;6.556;2022-09-12T01:24:00;18.02;;;12.95;;
29358;SDS011;16347;53.232;6.556;2022-09-12T01:32:52;25.40;;;19.45;;
29358;SDS011;16347;53.232;6.556;2022-09-12T01:35:49;23.67;;;18.90;;
29358;SDS011;16347;53.232;6.556;2022-09-12T01:38:36;19.25;;;16.05;;
29358;SDS011;16347;53.232;6.556;2022-09-12T01:41:13;29.65;;;18.77;;
29358;SDS011;16347;53.232;6.556;2022-09-12T01:43:55;20.92;;;17.50;;
29358;SDS011;16347;53.232;6.556;2022-09-12T01:46:34;25.65;;;21.48;;
29358;SDS011;16347;53.232;6.556;2022-09-12T01:49:14;28.02;;;21.77;;
29358;SDS011;16347;53.232;6.556;2022-09-12T01:51:54;27.30;;;21.95;;
29358;SDS011;16347;53.232;6.556;2022-09-12T01:54:31;27.88;;;22.58;;
29358;SDS011;16347;53.232;6.556;2022-09-12T01:57:09;29.73;;;22.90;;
29358;SDS011;16347;53.232;6.556;2022-09-12T01:59:43;29.75;;;23.30;;
29358;SDS011;16347;53.232;6.556;2022-09-12T02:02:20;29.60;;;23.38;;
29358;SDS011;16347;53.232;6.556;2022-09-12T02:04:58;47.53;;;25.13;;
29358;SDS011;16347;53.232;6.556;2022-09-12T02:07:34;30.77;;;23.25;;
29358;SDS011;16347;53.232;6.556;2022-09-12T02:10:09;31.80;;;25.10;;
29358;SDS011;16347;53.232;6.556;2022-09-12T02:12:45;34.22;;;27.38;;
29358;SDS011;16347;53.232;6.556;2022-09-12T02:15:19;31.70;;;26.77;;
29358;SDS011;16347;53.232;6.556;2022-09-12T02:17:55;37.10;;;27.77;;
29358;SDS011;16347;53.232;6.556;2022-09-12T02:20:29;33.35;;;25.10;;
29358;SDS011;16347;53.232;6.556;2022-09-12T02:23:15;28.83;;;23.20;;
29358;SDS011;16347;53.232;6.556;2022-09-12T02:28:18;19.02;;;16.67;;
29358;SDS011;16347;53.232;6.556;2022-09-12T02:30:54;27.30;;;20.42;;
29358;SDS011;16347;53.232;6.556;2022-09-12T02:33:31;26.52;;;18.55;;
29358;SDS011;16347;53.232;6.556;2022-09-12T02:36:08;22.13;;;18.23;;
29358;SDS011;16347;53.232;6.556;2022-09-12T02:38:43;18.80;;;14.70;;
29358;SDS011;16347;53.232;6.556;2022-09-12T02:41:14;20.27;;;15.00;;
29358;SDS011;16347;53.232;6.556;2022-09-12T02:43:46;19.30;;;14.68;;
29358;SDS011;16347;53.232;6.556;2022-09-12T02:46:19;15.55;;;12.93;;
29358;SDS011;16347;53.232;6.556;2022-09-12T02:48:52;20.13;;;13.88;;
29358;SDS011;16347;53.232;6.556;2022-09-12T02:51:21;22.55;;;15.43;;
29358;SDS011;16347;53.232;6.556;2022-09-12T02:53:50;19.58;;;14.02;;
29358;SDS011;16347;53.232;6.556;2022-09-12T02:56:21;15.38;;;12.45;;
29358;SDS011;16347;53.232;6.556;2022-09-12T02:58:52;22.00;;;13.83;;
29358;SDS011;16347;53.232;6.556;2022-09-12T03:01:28;18.83;;;13.93;;
29358;SDS011;16347;53.232;6.556;2022-09-12T03:04:16;15.80;;;13.53;;
29358;SDS011;16347;53.232;6.556;2022-09-12T03:07:00;18.08;;;12.55;;
29358;SDS011;16347;53.232;6.556;2022-09-12T03:09:41;19.33;;;14.88;;
29358;SDS011;16347;53.232;6.556;2022-09-12T03:12:18;19.85;;;13.65;;
29358;SDS011;16347;53.232;6.556;2022-09-12T03:15:01;19.15;;;12.57;;
29358;SDS011;16347;53.232;6.556;2022-09-12T03:17:40;16.73;;;13.73;;
29358;SDS011;16347;53.232;6.556;2022-09-12T03:20:16;17.10;;;12.40;;
29358;SDS011;16347;53.232;6.556;2022-09-12T03:22:52;18.63;;;12.30;;
29358;SDS011;16347;53.232;6.556;2022-09-12T03:25:29;17.83;;;13.82;;
29358;SDS011;16347;53.232;6.556;2022-09-12T03:28:06;17.67;;;14.00;;
29358;SDS011;16347;53.232;6.556;2022-09-12T03:30:42;20.92;;;14.25;;
29358;SDS011;16347;53.232;6.556;2022-09-12T03:33:16;19.42;;;12.93;;
29358;SDS011;16347;53.232;6.556;2022-09-12T03:35:50;15.57;;;12.75;;
29358;SDS011;16347;53.232;6.556;2022-09-12T03:38:20;17.73;;;13.52;;
29358;SDS011;16347;53.232;6.556;2022-09-12T03:40:48;21.13;;;13.95;;
29358;SDS011;16347;53.232;6.556;2022-09-12T03:43:21;18.67;;;14.57;;
29358;SDS011;16347;53.232;6.556;2022-09-12T03:45:53;17.90;;;13.85;;
29358;SDS011;16347;53.232;6.556;2022-09-12T03:48:21;19.65;;;14.98;;
29358;SDS011;16347;53.232;6.556;2022-09-12T03:50:51;21.60;;;14.38;;
29358;SDS011;16347;53.232;6.556;2022-09-12T03:53:20;18.40;;;13.80;;
29358;SDS011;16347;53.232;6.556;2022-09-12T03:56:04;26.77;;;15.27;;
29358;SDS011;16347;53.232;6.556;2022-09-12T03:58:37;23.75;;;16.80;;
29358;SDS011;16347;53.232;6.556;2022-09-12T04:01:08;26.83;;;17.75;;
29358;SDS011;16347;53.232;6.556;2022-09-12T04:03:40;22.75;;;16.02;;
29358;SDS011;16347;53.232;6.556;2022-09-12T04:06:14;26.98;;;17.35;;
29358;SDS011;16347;53.232;6.556;2022-09-12T04:08:48;24.85;;;16.10;;
29358;SDS011;16347;53.232;6.556;2022-09-12T04:11:22;23.90;;;16.88;;
29358;SDS011;16347;53.232;6.556;2022-09-12T04:13:56;27.20;;;18.95;;
29358;SDS011;16347;53.232;6.556;2022-09-12T04:16:27;23.98;;;17.30;;
29358;SDS011;16347;53.232;6.556;2022-09-12T04:18:59;24.57;;;17.03;;
29358;SDS011;16347;53.232;6.556;2022-09-12T04:21:29;27.83;;;17.95;;
29358;SDS011;16347;53.232;6.556;2022-09-12T04:23:57;27.15;;;19.20;;
29358;SDS011;16347;53.232;6.556;2022-09-12T04:26:25;29.25;;;19.85;;
29358;SDS011;16347;53.232;6.556;2022-09-12T04:28:55;28.77;;;19.23;;
29358;SDS011;16347;53.232;6.556;2022-09-12T04:31:23;28.00;;;18.67;;
29358;SDS011;16347;53.232;6.556;2022-09-12T04:33:52;34.03;;;19.30;;
29358;SDS011;16347;53.232;6.556;2022-09-12T04:36:21;33.13;;;19.73;;
29358;SDS011;16347;53.232;6.556;2022-09-12T04:38:52;31.40;;;20.17;;
29358;SDS011;16347;53.232;6.556;2022-09-12T04:41:22;31.33;;;20.55;;
29358;SDS011;16347;53.232;6.556;2022-09-12T04:43:53;28.67;;;21.17;;
29358;SDS011;16347;53.232;6.556;2022-09-12T04:46:25;37.80;;;22.45;;
29358;SDS011;16347;53.232;6.556;2022-09-12T04:48:54;34.08;;;22.58;;
29358;SDS011;16347;53.232;6.556;2022-09-12T04:51:23;32.00;;;22.33;;
29358;SDS011;16347;53.232;6.556;2022-09-12T04:53:57;31.08;;;21.88;;
29358;SDS011;16347;53.232;6.556;2022-09-12T04:56:30;33.58;;;21.88;;
29358;SDS011;16347;53.232;6.556;2022-09-12T04:59:03;30.55;;;20.98;;
29358;SDS011;16347;53.232;6.556;2022-09-12T05:01:33;32.20;;;20.25;;
29358;SDS011;16347;53.232;6.556;2022-09-12T05:04:02;33.90;;;20.80;;
29358;SDS011;16347;53.232;6.556;2022-09-12T05:06:34;30.10;;;20.98;;
29358;SDS011;16347;53.232;6.556;2022-09-12T05:09:09;34.20;;;21.23;;
29358;SDS011;16347;53.232;6.556;2022-09-12T05:11:42;32.83;;;21.40;;
29358;SDS011;16347;53.232;6.556;2022-09-12T05:14:32;31.10;;;20.55;;
29358;SDS011;16347;53.232;6.556;2022-09-12T05:17:02;30.83;;;20.02;;
29358;SDS011;16347;53.232;6.556;2022-09-12T05:19:32;31.13;;;19.85;;
29358;SDS011;16347;53.232;6.556;2022-09-12T05:22:00;28.42;;;19.90;;
29358;SDS011;16347;53.232;6.556;2022-09-12T05:24:33;27.77;;;20.35;;
29358;SDS011;16347;53.232;6.556;2022-09-12T05:27:04;29.25;;;20.25;;
29358;SDS011;16347;53.232;6.556;2022-09-12T05:29:35;28.80;;;18.30;;
29358;SDS011;16347;53.232;6.556;2022-09-12T05:32:05;25.95;;;18.30;;
29358;SDS011;16347;53.232;6.556;2022-09-12T05:34:37;29.23;;;20.00;;
29358;SDS011;16347;53.232;6.556;2022-09-12T05:37:05;28.35;;;20.13;;
29358;SDS011;16347;53.232;6.556;2022-09-12T05:39:37;25.73;;;19.05;;
29358;SDS011;16347;53.232;6.556;2022-09-12T05:42:08;29.80;;;20.67;;
29358;SDS011;16347;53.232;6.556;2022-09-12T05:44:38;28.27;;;19.52;;
29358;SDS011;16347;53.232;6.556;2022-09-12T05:47:10;30.00;;;20.42;;
29358;SDS011;16347;53.232;6.556;2022-09-12T05:49:39;31.08;;;20.63;;
29358;SDS011;16347;53.232;6.556;2022-09-12T05:52:09;29.85;;;20.50;;
29358;SDS011;16347;53.232;6.556;2022-09-12T05:54:42;29.27;;;20.58;;
29358;SDS011;16347;53.232;6.556;2022-09-12T05:57:14;28.02;;;19.10;;
29358;SDS011;16347;53.232;6.556;2022-09-12T05:59:45;29.50;;;19.73;;
29358;SDS011;16347;53.232;6.556;2022-09-12T06:02:17;33.53;;;19.60;;
29358;SDS011;16347;53.232;6.556;2022-09-12T06:04:48;31.77;;;21.45;;
29358;SDS011;16347;53.232;6.556;2022-09-12T06:07:19;34.42;;;21.65;;
29358;SDS011;16347;53.232;6.556;2022-09-12T06:09:49;31.40;;;20.55;;
29358;SDS011;16347;53.232;6.556;2022-09-12T06:12:19;32.03;;;22.45;;
29358;SDS011;16347;53.232;6.556;2022-09-12T06:14:49;36.83;;;22.52;;
29358;SDS011;16347;53.232;6.556;2022-09-12T06:17:18;33.83;;;21.98;;
29358;SDS011;16347;53.232;6.556;2022-09-12T06:19:48;31.10;;;20.08;;
29358;SDS011;16347;53.232;6.556;2022-09-12T06:22:21;35.22;;;23.05;;
29358;SDS011;16347;53.232;6.556;2022-09-12T06:24:52;41.42;;;24.63;;
29358;SDS011;16347;53.232;6.556;2022-09-12T06:27:23;48.67;;;25.23;;
29358;SDS011;16347;53.232;6.556;2022-09-12T06:29:53;42.05;;;25.17;;
29358;SDS011;16347;53.232;6.556;2022-09-12T06:32:24;42.28;;;25.38;;
29358;SDS011;16347;53.232;6.556;2022-09-12T06:34:58;46.35;;;27.13;;
29358;SDS011;16347;53.232;6.556;2022-09-12T06:37:31;44.10;;;25.58;;
29358;SDS011;16347;53.232;6.556;2022-09-12T06:40:03;50.08;;;28.30;;
29358;SDS011;16347;53.232;6.556;2022-09-12T06:42:36;52.42;;;29.25;;
29358;SDS011;16347;53.232;6.556;2022-09-12T06:45:08;49.08;;;27.30;;
29358;SDS011;16347;53.232;6.556;2022-09-12T06:47:38;50.30;;;27.45;;
29358;SDS011;16347;53.232;6.556;2022-09-12T06:50:07;53.47;;;30.08;;
29358;SDS011;16347;53.232;6.556;2022-09-12T06:52:37;50.88;;;28.70;;
29358;SDS011;16347;53.232;6.556;2022-09-12T06:55:10;52.20;;;29.05;;
29358;SDS011;16347;53.232;6.556;2022-09-12T06:57:47;60.90;;;33.15;;
29358;SDS011;16347;53.232;6.556;2022-09-12T07:00:15;53.95;;;30.40;;
29358;SDS011;16347;53.232;6.556;2022-09-12T07:02:47;56.85;;;29.33;;
29358;SDS011;16347;53.232;6.556;2022-09-12T07:05:18;52.53;;;29.52;;
29358;SDS011;16347;53.232;6.556;2022-09-12T07:07:50;54.85;;;30.38;;
29358;SDS011;16347;53.232;6.556;2022-09-12T07:10:24;52.75;;;31.02;;
29358;SDS011;16347;53.232;6.556;2022-09-12T07:12:53;55.53;;;30.65;;
29358;SDS011;16347;53.232;6.556;2022-09-12T07:15:22;57.08;;;30.92;;
29358;SDS011;16347;53.232;6.556;2022-09-12T07:17:50;54.10;;;30.05;;
29358;SDS011;16347;53.232;6.556;2022-09-12T07:20:20;63.67;;;34.00;;
29358;SDS011;16347;53.232;6.556;2022-09-12T07:22:51;54.63;;;32.20;;
29358;SDS011;16347;53.232;6.556;2022-09-12T07:25:22;51.10;;;28.92;;
29358;SDS011;16347;53.232;6.556;2022-09-12T07:27:54;58.72;;;31.67;;
29358;SDS011;16347;53.232;6.556;2022-09-12T07:30:25;60.67;;;33.20;;
29358;SDS011;16347;53.232;6.556;2022-09-12T07:32:55;54.92;;;33.60;;
29358;SDS011;16347;53.232;6.556;2022-09-12T07:35:26;57.08;;;32.42;;
29358;SDS011;16347;53.232;6.556;2022-09-12T07:37:54;62.03;;;32.00;;
29358;SDS011;16347;53.232;6.556;2022-09-12T07:40:24;61.50;;;32.50;;
29358;SDS011;16347;53.232;6.556;2022-09-12T07:42:53;61.25;;;34.22;;
29358;SDS011;16347;53.232;6.556;2022-09-12T07:45:22;61.97;;;33.13;;
29358;SDS011;16347;53.232;6.556;2022-09-12T07:47:54;62.53;;;32.40;;
29358;SDS011;16347;53.232;6.556;2022-09-12T07:50:25;67.15;;;33.53;;
29358;SDS011;16347;53.232;6.556;2022-09-12T07:52:55;60.03;;;34.63;;
29358;SDS011;16347;53.232;6.556;2022-09-12T07:55:27;59.53;;;33.03;;
29358;SDS011;16347;53.232;6.556;2022-09-12T07:57:57;61.60;;;35.28;;
29358;SDS011;16347;53.232;6.556;2022-09-12T08:00:28;53.20;;;31.67;;
29358;SDS011;16347;53.232;6.556;2022-09-12T08:03:02;65.68;;;34.53;;
29358;SDS011;16347;53.232;6.556;2022-09-12T08:05:34;65.13;;;34.30;;
29358;SDS011;16347;53.232;6.556;2022-09-12T08:08:05;60.33;;;32.80;;
29358;SDS011;16347;53.232;6.556;2022-09-12T08:10:37;61.83;;;33.58;;
29358;SDS011;16347;53.232;6.556;2022-09-12T08:13:08;65.43;;;33.50;;
29358;SDS011;16347;53.232;6.556;2022-09-12T08:15:38;69.00;;;34.90;;
29358;SDS011;16347;53.232;6.556;2022-09-12T08:18:08;67.20;;;34.17;;
29358;SDS011;16347;53.232;6.556;2022-09-12T08:20:38;64.85;;;34.25;;
29358;SDS011;16347;53.232;6.556;2022-09-12T08:23:08;65.68;;;34.85;;
29358;SDS011;16347;53.232;6.556;2022-09-12T08:25:41;65.82;;;33.83;;
29358;SDS011;16347;53.232;6.556;2022-09-12T08:28:10;60.28;;;33.88;;
29358;SDS011;16347;53.232;6.556;2022-09-12T08:30:40;65.15;;;35.53;;
29358;SDS011;16347;53.232;6.556;2022-09-12T08:33:11;61.70;;;33.65;;
29358;SDS011;16347;53.232;6.556;2022-09-12T08:35:41;66.90;;;33.00;;
29358;SDS011;16347;53.232;6.556;2022-09-12T08:38:09;62.65;;;33.65;;
29358;SDS011;16347;53.232;6.556;2022-09-12T08:40:42;62.30;;;33.22;;
29358;SDS011;16347;53.232;6.556;2022-09-12T08:43:22;62.42;;;33.22;;
29358;SDS011;16347;53.232;6.556;2022-09-12T08:46:05;60.83;;;31.88;;
29358;SDS011;16347;53.232;6.556;2022-09-12T08:48:44;60.63;;;32.90;;
29358;SDS011;16347;53.232;6.556;2022-09-12T08:51:15;56.60;;;31.80;;
29358;SDS011;16347;53.232;6.556;2022-09-12T08:53:48;69.40;;;33.43;;
29358;SDS011;16347;53.232;6.556;2022-09-12T08:56:24;57.17;;;32.50;;
29358;SDS011;16347;53.232;6.556;2022-09-12T08:58:58;54.83;;;30.70;;
29358;SDS011;16347;53.232;6.556;2022-09-12T09:01:29;58.45;;;31.63;;
29358;SDS011;16347;53.232;6.556;2022-09-12T09:04:08;57.60;;;32.25;;
29358;SDS011;16347;53.232;6.556;2022-09-12T09:07:02;56.15;;;29.73;;
29358;SDS011;16347;53.232;6.556;2022-09-12T09:09:56;55.22;;;30.25;;
29358;SDS011;16347;53.232;6.556;2022-09-12T09:12:37;54.53;;;30.48;;
29358;SDS011;16347;53.232;6.556;2022-09-12T09:15:16;56.28;;;30.40;;
29358;SDS011;16347;53.232;6.556;2022-09-12T09:18:00;57.35;;;29.83;;
29358;SDS011;16347;53.232;6.556;2022-09-12T09:20:34;57.22;;;30.40;;
29358;SDS011;16347;53.232;6.556;2022-09-12T09:23:10;61.65;;;29.90;;
29358;SDS011;16347;53.232;6.556;2022-09-12T09:25:47;59.63;;;29.98;;
29358;SDS011;16347;53.232;6.556;2022-09-12T09:28:24;61.88;;;31.80;;
29358;SDS011;16347;53.232;6.556;2022-09-12T09:30:59;58.75;;;29.95;;
29358;SDS011;16347;53.232;6.556;2022-09-12T09:33:30;55.45;;;29.38;;
29358;SDS011;16347;53.232;6.556;2022-09-12T09:36:04;54.97;;;30.30;;
29358;SDS011;16347;53.232;6.556;2022-09-12T09:38:46;56.33;;;29.95;;
29358;SDS011;16347;53.232;6.556;2022-09-12T09:44:16;56.25;;;28.88;;
29358;SDS011;16347;53.232;6.556;2022-09-12T09:46:46;55.22;;;28.48;;
29358;SDS011;16347;53.232;6.556;2022-09-12T09:51:49;52.17;;;27.30;;
29358;SDS011;16347;53.232;6.556;2022-09-12T09:54:23;51.85;;;27.60;;
29358;SDS011;16347;53.232;6.556;2022-09-12T09:56:54;51.30;;;26.90;;
29358;SDS011;16347;53.232;6.556;2022-09-12T09:59:26;48.70;;;27.23;;
29358;SDS011;16347;53.232;6.556;2022-09-12T10:01:57;55.38;;;28.63;;
29358;SDS011;16347;53.232;6.556;2022-09-12T10:04:31;51.05;;;27.85;;
29358;SDS011;16347;53.232;6.556;2022-09-12T10:07:16;50.45;;;28.10;;
29358;SDS011;16347;53.232;6.556;2022-09-12T10:10:02;49.03;;;26.83;;
29358;SDS011;16347;53.232;6.556;2022-09-12T10:12:34;49.90;;;26.75;;
29358;SDS011;16347;53.232;6.556;2022-09-12T10:15:15;51.20;;;27.70;;
29358;SDS011;16347;53.232;6.556;2022-09-12T10:17:47;49.30;;;27.23;;
29358;SDS011;16347;53.232;6.556;2022-09-12T10:23:18;54.10;;;28.10;;
29358;SDS011;16347;53.232;6.556;2022-09-12T10:25:58;53.17;;;28.05;;
29358;SDS011;16347;53.232;6.556;2022-09-12T10:28:32;53.53;;;29.55;;
29358;SDS011;16347;53.232;6.556;2022-09-12T10:31:06;50.47;;;27.33;;
29358;SDS011;16347;53.232;6.556;2022-09-12T10:33:39;53.38;;;27.00;;
29358;SDS011;16347;53.232;6.556;2022-09-12T10:36:12;57.15;;;28.83;;
29358;SDS011;16347;53.232;6.556;2022-09-12T10:38:47;55.67;;;27.25;;
29358;SDS011;16347;53.232;6.556;2022-09-12T10:41:20;40.30;;;19.65;;
29358;SDS011;16347;53.232;6.556;2022-09-12T10:43:49;46.63;;;23.15;;
29358;SDS011;16347;53.232;6.556;2022-09-12T10:46:28;45.28;;;22.63;;
29358;SDS011;16347;53.232;6.556;2022-09-12T10:52:13;33.50;;;18.13;;
29358;SDS011;16347;53.232;6.556;2022-09-12T10:54:45;37.42;;;18.33;;
29358;SDS011;16347;53.232;6.556;2022-09-12T10:57:21;39.30;;;20.10;;
29358;SDS011;16347;53.232;6.556;2022-09-12T11:00:23;36.10;;;20.30;;
29358;SDS011;16347;53.232;6.556;2022-09-12T11:03:01;40.60;;;20.08;;
29358;SDS011;16347;53.232;6.556;2022-09-12T11:05:48;37.22;;;19.50;;
29358;SDS011;16347;53.232;6.556;2022-09-12T11:08:27;33.20;;;17.58;;
29358;SDS011;16347;53.232;6.556;2022-09-12T11:11:12;32.40;;;16.25;;
29358;SDS011;16347;53.232;6.556;2022-09-12T11:13:57;42.60;;;21.05;;
29358;SDS011;16347;53.232;6.556;2022-09-12T11:16:39;42.15;;;21.13;;
29358;SDS011;16347;53.232;6.556;2022-09-12T11:22:42;42.00;;;19.05;;
29358;SDS011;16347;53.232;6.556;2022-09-12T11:25:30;37.63;;;19.17;;
29358;SDS011;16347;53.232;6.556;2022-09-12T11:31:10;34.30;;;17.92;;
29358;SDS011;16347;53.232;6.556;2022-09-12T11:33:58;30.88;;;17.00;;
29358;SDS011;16347;53.232;6.556;2022-09-12T11:39:23;36.33;;;18.75;;
29358;SDS011;16347;53.232;6.556;2022-09-12T11:42:01;31.07;;;16.40;;
29358;SDS011;16347;53.232;6.556;2022-09-12T11:44:35;32.00;;;15.10;;
29358;SDS011;16347;53.232;6.556;2022-09-12T11:47:10;32.72;;;14.32;;
29358;SDS011;16347;53.232;6.556;2022-09-12T11:49:42;29.33;;;15.50;;
29358;SDS011;16347;53.232;6.556;2022-09-12T11:52:19;28.30;;;14.20;;
29358;SDS011;16347;53.232;6.556;2022-09-12T11:54:56;29.83;;;13.30;;
29358;SDS011;16347;53.232;6.556;2022-09-12T11:57:34;17.38;;;9.50;;
29358;SDS011;16347;53.232;6.556;2022-09-12T12:00:14;17.15;;;9.10;;
29358;SDS011;16347;53.232;6.556;2022-09-12T12:02:48;16.00;;;8.40;;
29358;SDS011;16347;53.232;6.556;2022-09-12T12:05:25;18.30;;;9.38;;
29358;SDS011;16347;53.232;6.556;2022-09-12T12:08:03;17.13;;;9.30;;
29358;SDS011;16347;53.232;6.556;2022-09-12T12:10:38;17.00;;;10.00;;
29358;SDS011;16347;53.232;6.556;2022-09-12T12:13:13;15.63;;;9.23;;
29358;SDS011;16347;53.232;6.556;2022-09-12T12:15:49;20.08;;;11.55;;
29358;SDS011;16347;53.232;6.556;2022-09-12T12:18:22;24.45;;;12.27;;
29358;SDS011;16347;53.232;6.556;2022-09-12T12:20:56;19.02;;;10.63;;
29358;SDS011;16347;53.232;6.556;2022-09-12T12:24:01;17.95;;;10.15;;
29358;SDS011;16347;53.232;6.556;2022-09-12T12:26:55;16.88;;;10.25;;
29358;SDS011;16347;53.232;6.556;2022-09-12T12:29:41;16.42;;;11.00;;
29358;SDS011;16347;53.232;6.556;2022-09-12T12:34:49;16.70;;;8.82;;
29358;SDS011;16347;53.232;6.556;2022-09-12T12:37:49;17.10;;;8.85;;
29358;SDS011;16347;53.232;6.556;2022-09-12T12:40:25;16.15;;;9.45;;
29358;SDS011;16347;53.232;6.556;2022-09-12T12:43:00;12.05;;;7.00;;
29358;SDS011;16347;53.232;6.556;2022-09-12T12:48:47;17.42;;;6.22;;
29358;SDS011;16347;53.232;6.556;2022-09-12T12:57:02;8.15;;;5.68;;
29358;SDS011;16347;53.232;6.556;2022-09-12T12:59:49;8.63;;;5.37;;
29358;SDS011;16347;53.232;6.556;2022-09-12T13:02:24;8.60;;;4.60;;
29358;SDS011;16347;53.232;6.556;2022-09-12T13:05:00;7.38;;;4.85;;
29358;SDS011;16347;53.232;6.556;2022-09-12T13:07:32;9.00;;;5.22;;
29358;SDS011;16347;53.232;6.556;2022-09-12T13:10:06;10.00;;;6.07;;
29358;SDS011;16347;53.232;6.556;2022-09-12T13:12:42;11.32;;;6.82;;
29358;SDS011;16347;53.232;6.556;2022-09-12T13:18:24;11.52;;;6.05;;
29358;SDS011;16347;53.232;6.556;2022-09-12T13:20:59;6.60;;;5.03;;
29358;SDS011;16347;53.232;6.556;2022-09-12T13:23:33;9.43;;;5.15;;
29358;SDS011;16347;53.232;6.556;2022-09-12T13:26:07;7.38;;;4.38;;
29358;SDS011;16347;53.232;6.556;2022-09-12T13:28:38;9.85;;;4.70;;
29358;SDS011;16347;53.232;6.556;2022-09-12T13:31:14;6.80;;;4.82;;
29358;SDS011;16347;53.232;6.556;2022-09-12T13:33:50;9.38;;;4.40;;
29358;SDS011;16347;53.232;6.556;2022-09-12T13:39:23;9.30;;;5.18;;
29358;SDS011;16347;53.232;6.556;2022-09-12T13:45:10;8.20;;;4.78;;
29358;SDS011;16347;53.232;6.556;2022-09-12T13:47:43;11.05;;;6.50;;
29358;SDS011;16347;53.232;6.556;2022-09-12T13:50:16;17.30;;;6.00;;
29358;SDS011;16347;53.232;6.556;2022-09-12T13:52:49;12.48;;;5.85;;
29358;SDS011;16347;53.232;6.556;2022-09-12T13:55:26;9.30;;;6.13;;
29358;SDS011;16347;53.232;6.556;2022-09-12T13:57:59;10.75;;;6.10;;
29358;SDS011;16347;53.232;6.556;2022-09-12T14:00:31;12.38;;;5.63;;
29358;SDS011;16347;53.232;6.556;2022-09-12T14:06:09;10.32;;;5.90;;
29358;SDS011;16347;53.232;6.556;2022-09-12T14:08:41;11.90;;;6.50;;
29358;SDS011;16347;53.232;6.556;2022-09-12T14:11:20;9.63;;;6.30;;
29358;SDS011;16347;53.232;6.556;2022-09-12T14:13:53;12.13;;;5.75;;
29358;SDS011;16347;53.232;6.556;2022-09-12T14:16:23;8.40;;;4.85;;
29358;SDS011;16347;53.232;6.556;2022-09-12T14:18:54;6.93;;;4.75;;
29358;SDS011;16347;53.232;6.556;2022-09-12T14:21:29;8.27;;;5.20;;
29358;SDS011;16347;53.232;6.556;2022-09-12T14:24:03;10.80;;;5.93;;
29358;SDS011;16347;53.232;6.556;2022-09-12T14:26:35;10.43;;;4.80;;
29358;SDS011;16347;53.232;6.556;2022-09-12T14:29:06;10.82;;;5.60;;
29358;SDS011;16347;53.232;6.556;2022-09-12T14:31:39;13.75;;;5.75;;
29358;SDS011;16347;53.232;6.556;2022-09-12T14:34:11;12.13;;;6.43;;
29358;SDS011;16347;53.232;6.556;2022-09-12T14:36:44;9.07;;;5.35;;
29358;SDS011;16347;53.232;6.556;2022-09-12T14:39:18;9.43;;;6.38;;
29358;SDS011;16347;53.232;6.556;2022-09-12T14:41:59;12.43;;;6.93;;
29358;SDS011;16347;53.232;6.556;2022-09-12T14:44:31;11.55;;;6.35;;
29358;SDS011;16347;53.232;6.556;2022-09-12T14:47:12;9.85;;;6.88;;
29358;SDS011;16347;53.232;6.556;2022-09-12T14:49:51;8.02;;;5.95;;
29358;SDS011;16347;53.232;6.556;2022-09-12T14:52:24;14.07;;;8.10;;
29358;SDS011;16347;53.232;6.556;2022-09-12T14:54:58;12.00;;;7.10;;
29358;SDS011;16347;53.232;6.556;2022-09-12T14:57:32;12.65;;;6.93;;
29358;SDS011;16347;53.232;6.556;2022-09-12T15:03:14;14.40;;;6.75;;
29358;SDS011;16347;53.232;6.556;2022-09-12T15:05:53;10.43;;;6.88;;
29358;SDS011;16347;53.232;6.556;2022-09-12T15:08:26;9.70;;;6.50;;
29358;SDS011;16347;53.232;6.556;2022-09-12T15:10:54;11.80;;;7.22;;
29358;SDS011;16347;53.232;6.556;2022-09-12T15:13:25;16.88;;;8.40;;
29358;SDS011;16347;53.232;6.556;2022-09-12T15:15:57;12.07;;;7.63;;
29358;SDS011;16347;53.232;6.556;2022-09-12T15:18:28;15.60;;;6.75;;
29358;SDS011;16347;53.232;6.556;2022-09-12T15:21:01;10.50;;;6.53;;
29358;SDS011;16347;53.232;6.556;2022-09-12T15:23:34;10.77;;;6.88;;
29358;SDS011;16347;53.232;6.556;2022-09-12T15:26:10;11.13;;;6.68;;
29358;SDS011;16347;53.232;6.556;2022-09-12T15:28:42;13.95;;;6.82;;
29358;SDS011;16347;53.232;6.556;2022-09-12T15:31:15;15.00;;;7.80;;
29358;SDS011;16347;53.232;6.556;2022-09-12T15:33:53;11.27;;;7.03;;
29358;SDS011;16347;53.232;6.556;2022-09-12T15:36:25;13.05;;;8.63;;
29358;SDS011;16347;53.232;6.556;2022-09-12T15:38:54;15.55;;;8.45;;
29358;SDS011;16347;53.232;6.556;2022-09-12T15:41:25;12.25;;;8.20;;
29358;SDS011;16347;53.232;6.556;2022-09-12T15:44:00;13.95;;;8.43;;
29358;SDS011;16347;53.232;6.556;2022-09-12T15:46:31;13.13;;;8.02;;
29358;SDS011;16347;53.232;6.556;2022-09-12T15:48:59;12.80;;;8.63;;
29358;SDS011;16347;53.232;6.556;2022-09-12T15:51:30;18.15;;;9.50;;
29358;SDS011;16347;53.232;6.556;2022-09-12T15:53:59;19.60;;;10.25;;
29358;SDS011;16347;53.232;6.556;2022-09-12T15:56:31;14.23;;;9.73;;
29358;SDS011;16347;53.232;6.556;2022-09-12T15:59:00;15.10;;;9.43;;
29358;SDS011;16347;53.232;6.556;2022-09-12T16:01:33;12.63;;;8.15;;
29358;SDS011;16347;53.232;6.556;2022-09-12T16:04:08;13.50;;;8.50;;
29358;SDS011;16347;53.232;6.556;2022-09-12T16:06:53;13.38;;;7.75;;